Time;durP1;ratioP1;P1;durP2;ratioP2;P2;SDS_P1;SDS_P2;PMS_P1;PMS_P2;Temp;Humidity;BMP_temperature;BMP_pressure;BME280_temperature;BME280_humidity;BME280_pressure;Samples;Min_cycle;Max_cycle;Signal;HPM_P1;HPM_P2
2023/08/20 00:01:35;;;;;;;11.1;5.3;;;;;;;20.19;79.55957;942.2559;;;;
2023/08/20 00:04:03;;;;;;;10.7;4.9;;;;;;;20.04;80.13867;942.3254;;;;
2023/08/20 00:06:27;;;;;;;9.3;4.5;;;;;;;20.02;80.42871;942.3265;;;;
2023/08/20 00:08:52;;;;;;;7.3;4.4;;;;;;;20.06;80.55176;942.2838;;;;
2023/08/20 00:11:17;;;;;;;8.7;4.3;;;;;;;20.15;80.125;942.2642;;;;
2023/08/20 00:13:46;;;;;;;11.2;6.6;;;;;;;20.2;80.17969;942.2639;;;;
2023/08/20 00:16:11;;;;;;;9.1;5.6;;;;;;;20.26;80.00391;942.2202;;;;
2023/08/20 00:18:38;;;;;;;11.2;6.5;;;;;;;20.12;80.3418;942.2339;;;;
2023/08/20 00:21:04;;;;;;;8;4.8;;;;;;;20.09;80.60352;942.2112;;;;
2023/08/20 00:23:28;;;;;;;7.6;4.5;;;;;;;20.19;79.99121;942.1914;;;;
2023/08/20 00:25:53;;;;;;;11.2;4.2;;;;;;;20.21;79.86719;942.2119;;;;
2023/08/20 00:28:18;;;;;;;6.7;4.3;;;;;;;20.26;79.7373;942.1957;;;;
2023/08/20 00:30:45;;;;;;;6.3;4.1;;;;;;;20.14;80.35645;942.2432;;;;
2023/08/20 00:33:09;;;;;;;6.1;4;;;;;;;20.11;80.64355;942.2503;;;;
2023/08/20 00:35:36;;;;;;;8;4.3;;;;;;;20.02;80.4502;942.3191;;;;
2023/08/20 00:38:02;;;;;;;6.2;4.1;;;;;;;19.96;80.66211;942.3056;;;;
2023/08/20 00:40:27;;;;;;;8.7;4.1;;;;;;;19.99;80.74902;942.3528;;;;
2023/08/20 00:42:52;;;;;;;5.1;4.1;;;;;;;19.98;80.62988;942.3247;;;;
2023/08/20 00:45:20;;;;;;;8.7;4.6;;;;;;;19.96;80.67383;942.3469;;;;
2023/08/20 00:47:45;;;;;;;7.3;4.2;;;;;;;19.88;81.20703;942.3533;;;;
2023/08/20 00:50:16;;;;;;;8.8;3.7;;;;;;;19.79;81.02539;942.2605;;;;
2023/08/20 00:52:42;;;;;;;8.5;4.6;;;;;;;19.75;81.44043;942.3008;;;;
2023/08/20 00:55:10;;;;;;;7.6;3.8;;;;;;;19.86;81.0752;942.2528;;;;
2023/08/20 00:57:35;;;;;;;7.5;3.8;;;;;;;19.98;80.53711;942.21;;;;
2023/08/20 01:00:00;;;;;;;6;3.8;;;;;;;20.11;78.29785;942.2553;;;;
2023/08/20 01:02:25;;;;;;;7.7;4;;;;;;;20.1;77.75879;942.1931;;;;
2023/08/20 01:04:51;;;;;;;6.5;3.7;;;;;;;20.2;77.70605;942.1998;;;;
2023/08/20 01:07:16;;;;;;;6.2;3.9;;;;;;;20.15;78;942.2205;;;;
2023/08/20 01:09:44;;;;;;;5.2;4.1;;;;;;;20.06;78.4043;942.2224;;;;
2023/08/20 01:12:12;;;;;;;7.3;3.9;;;;;;;20.01;78.99023;942.2449;;;;
2023/08/20 01:14:37;;;;;;;5.7;4;;;;;;;20.03;78.54004;942.2164;;;;
2023/08/20 01:17:03;;;;;;;7.4;4.3;;;;;;;20.05;78.29785;942.2039;;;;
2023/08/20 01:19:28;;;;;;;8.8;4.2;;;;;;;19.92;78.98535;942.229;;;;
2023/08/20 01:21:53;;;;;;;7.6;3.9;;;;;;;19.81;79.71289;942.2729;;;;
2023/08/20 01:24:18;;;;;;;5;3.9;;;;;;;19.82;80.21582;942.2719;;;;
2023/08/20 01:26:43;;;;;;;6.7;4.5;;;;;;;19.73;80.49121;942.3011;;;;
2023/08/20 01:29:08;;;;;;;5.2;3.9;;;;;;;19.73;80.63086;942.2615;;;;
2023/08/20 01:31:35;;;;;;;9;4.1;;;;;;;19.8;80.16602;942.299;;;;
2023/08/20 01:34:00;;;;;;;6;4;;;;;;;19.84;80.5127;942.3655;;;;
2023/08/20 01:36:26;;;;;;;7.3;4.4;;;;;;;19.73;80.71191;942.3674;;;;
2023/08/20 01:38:51;;;;;;;6.6;4.6;;;;;;;19.82;80.62598;942.4338;;;;
2023/08/20 01:41:18;;;;;;;6.6;4.4;;;;;;;19.83;80.69727;942.3801;;;;
2023/08/20 01:43:44;;;;;;;7.9;4.6;;;;;;;19.76;81.33691;942.3926;;;;
2023/08/20 01:46:18;;;;;;;6.6;4.1;;;;;;;19.58;81.89844;942.4199;;;;
2023/08/20 01:48:44;;;;;;;8;4.9;;;;;;;19.58;82.48145;942.4224;;;;
2023/08/20 01:51:09;;;;;;;5.7;4.6;;;;;;;19.48;82.66016;942.4651;;;;
2023/08/20 01:53:37;;;;;;;6.2;4.4;;;;;;;19.3;83.7334;942.4728;;;;
2023/08/20 01:56:02;;;;;;;8.5;4.2;;;;;;;19.34;83.72852;942.3664;;;;
2023/08/20 01:58:27;;;;;;;6.5;4.2;;;;;;;19.41;83.54395;942.4363;;;;
2023/08/20 02:04:18;;;;;;;7.3;4.7;;;;;;;19.24;84.31543;942.432;;;;
2023/08/20 02:06:43;;;;;;;5.9;4.5;;;;;;;19.35;83.91699;942.4745;;;;
2023/08/20 02:09:12;;;;;;;6.2;4.4;;;;;;;19.26;84.2959;942.5019;;;;
2023/08/20 02:11:40;;;;;;;6.7;4.6;;;;;;;19.09;85.1377;942.4995;;;;
2023/08/20 02:14:05;;;;;;;6.7;4.4;;;;;;;19.11;85.27148;942.4717;;;;
2023/08/20 02:16:31;;;;;;;4.8;4.3;;;;;;;19.24;84.65332;942.4539;;;;
2023/08/20 02:18:56;;;;;;;6.7;4.1;;;;;;;19.23;84.18555;942.45;;;;
2023/08/20 02:21:25;;;;;;;8.7;4.2;;;;;;;19.04;85.0459;942.4842;;;;
2023/08/20 02:23:50;;;;;;;4.8;4;;;;;;;19.02;85.43848;942.4942;;;;
2023/08/20 02:26:15;;;;;;;6.3;4.4;;;;;;;19.02;85.37793;942.4706;;;;
2023/08/20 02:28:40;;;;;;;6.8;4.4;;;;;;;19.09;85.1709;942.5344;;;;
2023/08/20 02:31:10;;;;;;;6.5;4.1;;;;;;;19.15;84.60254;942.5502;;;;
2023/08/20 02:33:35;;;;;;;6.7;4.6;;;;;;;19.05;85.00098;942.4866;;;;
2023/08/20 02:36:02;;;;;;;6.3;4.4;;;;;;;19.12;84.71191;942.4973;;;;
2023/08/20 02:38:27;;;;;;;7.8;4.8;;;;;;;19.19;84.33984;942.4447;;;;
2023/08/20 02:40:55;;;;;;;7.9;4.6;;;;;;;19.16;84.37109;942.4088;;;;
2023/08/20 02:43:20;;;;;;;6.5;4.2;;;;;;;19.07;84.75977;942.4959;;;;
2023/08/20 02:45:47;;;;;;;7.9;4.3;;;;;;;19.02;85.03125;942.4771;;;;
2023/08/20 02:48:12;;;;;;;5.8;4.4;;;;;;;19.01;84.9707;942.507;;;;
2023/08/20 02:50:38;;;;;;;8.7;4.5;;;;;;;18.99;85.03711;942.4758;;;;
2023/08/20 02:53:44;;;;;;;5.5;4.4;;;;;;;18.93;85.67676;942.4705;;;;
2023/08/20 02:56:10;;;;;;;9.6;4.4;;;;;;;18.99;85.44336;942.4412;;;;
2023/08/20 02:58:35;;;;;;;5.4;4.1;;;;;;;19.07;84.76172;942.4531;;;;
2023/08/20 03:01:02;;;;;;;8.3;4.5;;;;;;;18.93;85.08301;942.481;;;;
2023/08/20 03:03:27;;;;;;;9.6;4.8;;;;;;;18.82;85.85352;942.4551;;;;
2023/08/20 03:05:55;;;;;;;9.3;4.4;;;;;;;18.9;85.45996;942.4023;;;;
2023/08/20 03:08:20;;;;;;;8;4.7;;;;;;;18.68;86.6416;942.47;;;;
2023/08/20 03:10:48;;;;;;;8.3;4.3;;;;;;;18.6;87.32324;942.4406;;;;
2023/08/20 03:13:14;;;;;;;9;4.5;;;;;;;18.55;87.55859;942.4858;;;;
2023/08/20 03:15:38;;;;;;;6.4;5.7;;;;;;;18.48;88.10059;942.4933;;;;
2023/08/20 03:18:03;;;;;;;7.6;6.1;;;;;;;18.46;88.58301;942.5089;;;;
2023/08/20 03:20:30;;;;;;;7.7;4.9;;;;;;;18.54;88.00879;942.5352;;;;
2023/08/20 03:22:53;;;;;;;7;4.7;;;;;;;18.55;87.74316;942.6019;;;;
2023/08/20 03:25:20;;;;;;;5.5;4.3;;;;;;;18.47;88.20313;942.6088;;;;
2023/08/20 03:27:46;;;;;;;6.3;5;;;;;;;18.48;88.25195;942.5739;;;;
2023/08/20 03:30:13;;;;;;;5.9;4.6;;;;;;;18.54;87.8457;942.6013;;;;
2023/08/20 03:32:38;;;;;;;4.8;4.3;;;;;;;18.61;87.4043;942.6744;;;;
2023/08/20 03:35:04;;;;;;;7.5;4.8;;;;;;;18.6;87.48633;942.6415;;;;
2023/08/20 03:37:29;;;;;;;7.5;4.3;;;;;;;18.63;87.13086;942.6894;;;;
2023/08/20 03:39:54;;;;;;;7;4.5;;;;;;;18.62;87.26855;942.6948;;;;
2023/08/20 03:42:20;;;;;;;6;4.2;;;;;;;18.69;86.58301;942.6731;;;;
2023/08/20 03:44:45;;;;;;;5.8;4.6;;;;;;;18.67;86.66309;942.7032;;;;
2023/08/20 03:47:11;;;;;;;6.6;4.6;;;;;;;18.74;86.15039;942.6894;;;;
2023/08/20 03:49:36;;;;;;;8.2;4.3;;;;;;;18.68;86.50195;942.8184;;;;
2023/08/20 03:52:02;;;;;;;7.4;4.7;;;;;;;18.55;87.09375;942.8019;;;;
2023/08/20 03:54:27;;;;;;;6.9;4.5;;;;;;;18.52;87.50293;942.7565;;;;
2023/08/20 03:56:55;;;;;;;7.8;4.7;;;;;;;18.3;88.58789;942.8317;;;;
2023/08/20 03:59:20;;;;;;;5.6;4.7;;;;;;;18.29;88.85254;942.8463;;;;
2023/08/20 04:02:32;;;;;;;7.4;4.7;;;;;;;18.33;88.75586;942.8257;;;;
2023/08/20 04:04:57;;;;;;;7.1;5;;;;;;;18.27;88.75684;942.7498;;;;
2023/08/20 04:07:26;;;;;;;6.7;4.8;;;;;;;18.26;88.9873;942.837;;;;
2023/08/20 04:09:51;;;;;;;7.7;4.9;;;;;;;18.2;89.25293;942.873;;;;
2023/08/20 04:12:20;;;;;;;8;4.8;;;;;;;18.02;90.32031;942.8421;;;;
2023/08/20 04:14:45;;;;;;;6.9;4.6;;;;;;;18.02;90.34277;942.8748;;;;
2023/08/20 04:17:14;;;;;;;7.2;5.4;;;;;;;17.97;90.56445;942.8441;;;;
2023/08/20 04:19:39;;;;;;;7.2;5.1;;;;;;;17.92;90.99609;942.8067;;;;
2023/08/20 04:22:04;;;;;;;6.8;5;;;;;;;18.07;90.23828;942.8191;;;;
2023/08/20 04:24:34;;;;;;;9;5.1;;;;;;;18.14;90.14844;942.8705;;;;
2023/08/20 04:27:00;;;;;;;9.3;4.9;;;;;;;18.19;89.78613;942.8505;;;;
2023/08/20 04:29:27;;;;;;;6.3;4.8;;;;;;;18.18;89.74902;942.8385;;;;
2023/08/20 04:31:52;;;;;;;7.3;4.7;;;;;;;18.18;89.79395;942.8894;;;;
2023/08/20 04:34:21;;;;;;;5.4;4.4;;;;;;;18.32;89.0459;942.8886;;;;
2023/08/20 04:36:46;;;;;;;6;4.6;;;;;;;18.33;88.94141;942.9216;;;;
2023/08/20 04:39:15;;;;;;;6.9;4.3;;;;;;;18.31;89.04297;942.8928;;;;
2023/08/20 04:42:14;;;;;;;7.4;4.2;;;;;;;18.32;88.83496;942.8791;;;;
2023/08/20 04:44:42;;;;;;;9.8;5;;;;;;;18.37;88.82324;942.8412;;;;
2023/08/20 04:47:07;;;;;;;5.8;4.8;;;;;;;18.34;88.87402;942.9231;;;;
2023/08/20 04:49:32;;;;;;;6.7;4.9;;;;;;;18.39;88.48926;942.9079;;;;
2023/08/20 04:52:01;;;;;;;8.4;4.2;;;;;;;18.56;88.44238;942.9777;;;;
2023/08/20 04:54:26;;;;;;;6.7;4.4;;;;;;;18.6;86.99609;943.0344;;;;
2023/08/20 04:56:53;;;;;;;7.6;4.5;;;;;;;18.62;87.09473;943.0698;;;;
2023/08/20 04:59:18;;;;;;;9;4.7;;;;;;;18.65;86.90234;943.0206;;;;
2023/08/20 05:01:45;;;;;;;6;5.2;;;;;;;18.64;87.5752;943.0369;;;;
2023/08/20 05:04:10;;;;;;;8.8;4.6;;;;;;;18.67;87.55664;943.0316;;;;
2023/08/20 05:06:39;;;;;;;8.7;4.3;;;;;;;18.86;86.78027;943.0331;;;;
2023/08/20 05:09:05;;;;;;;6.4;4.9;;;;;;;18.99;85.87402;943.0344;;;;
2023/08/20 05:11:31;;;;;;;6;4.6;;;;;;;19.07;85.91309;943.0126;;;;
2023/08/20 05:13:54;;;;;;;6.5;4.8;;;;;;;19.13;85.25098;942.9768;;;;
2023/08/20 05:19:19;;;;;;;7.1;4.5;;;;;;;19.34;84.89355;943.0359;;;;
2023/08/20 05:21:44;;;;;;;5.8;4.7;;;;;;;19.37;84.16699;943.1008;;;;
2023/08/20 05:24:10;;;;;;;6.1;4.5;;;;;;;19.45;83.92383;943.1458;;;;
2023/08/20 05:26:35;;;;;;;8.3;4.8;;;;;;;19.43;84.12988;943.117;;;;
2023/08/20 05:29:00;;;;;;;8;4.6;;;;;;;19.62;83.71191;943.0834;;;;
2023/08/20 05:31:25;;;;;;;6.2;4.3;;;;;;;19.76;82.875;943.0917;;;;
2023/08/20 05:33:51;;;;;;;8.4;4.2;;;;;;;19.9;82.75;943.1283;;;;
2023/08/20 05:36:16;;;;;;;6.4;4.3;;;;;;;20.01;82.2334;943.0912;;;;
2023/08/20 05:38:43;;;;;;;5.1;3.8;;;;;;;20.15;81.9668;943.1092;;;;
2023/08/20 05:41:07;;;;;;;4.8;4;;;;;;;20.54;80.0332;943.0211;;;;
2023/08/20 05:43:36;;;;;;;6.9;4.1;;;;;;;21.01;78.54785;943.0939;;;;
2023/08/20 05:45:59;;;;;;;6.2;3.9;;;;;;;21.27;75.58887;943.0449;;;;
2023/08/20 05:48:28;;;;;;;5.2;4;;;;;;;21.6;75.29297;943.0573;;;;
2023/08/20 05:50:53;;;;;;;6.4;4.1;;;;;;;21.83;73.75293;943.038;;;;
2023/08/20 05:53:18;;;;;;;5.7;4;;;;;;;22.28;70.85742;942.9934;;;;
2023/08/20 05:55:44;;;;;;;6;3.4;;;;;;;22.93;69.65918;942.9568;;;;
2023/08/20 05:58:09;;;;;;;5.1;3.9;;;;;;;24.06;65.43164;942.9581;;;;
2023/08/20 06:00:34;;;;;;;6.5;3.9;;;;;;;24.97;62.37891;942.9741;;;;
2023/08/20 06:03:00;;;;;;;5.3;3.3;;;;;;;26.2;57.40527;942.9116;;;;
2023/08/20 06:05:25;;;;;;;5.8;3.6;;;;;;;26.2;58.89551;942.972;;;;
2023/08/20 06:07:50;;;;;;;5;3.4;;;;;;;26.56;56.30176;942.9171;;;;
2023/08/20 06:10:49;;;;;;;6.7;3.5;;;;;;;27.17;52.8457;942.9167;;;;
2023/08/20 06:13:16;;;;;;;8.6;3.4;;;;;;;27.38;53.70117;942.9133;;;;
2023/08/20 06:15:41;;;;;;;5.8;3.3;;;;;;;26.36;53.74414;942.9624;;;;
2023/08/20 06:18:09;;;;;;;4.8;3.3;;;;;;;26.16;54.50098;942.9258;;;;
2023/08/20 06:20:34;;;;;;;5.5;3.1;;;;;;;25.97;54.19434;942.8569;;;;
2023/08/20 06:23:00;;;;;;;6.3;3.1;;;;;;;26.1;54.88477;942.8407;;;;
2023/08/20 06:25:29;;;;;;;6.1;3.2;;;;;;;25.46;55.27832;942.7498;;;;
2023/08/20 06:27:55;;;;;;;4.8;2.9;;;;;;;25.89;56.96387;942.7867;;;;
2023/08/20 06:30:21;;;;;;;5.3;3.3;;;;;;;26.27;54.68066;942.8108;;;;
2023/08/20 06:32:47;;;;;;;5.5;2.9;;;;;;;25.59;55.58984;942.8003;;;;
2023/08/20 06:35:12;;;;;;;4.9;3.3;;;;;;;25.89;55.10742;942.8621;;;;
2023/08/20 06:37:39;;;;;;;6.3;3.2;;;;;;;26.6;53.09863;942.8005;;;;
2023/08/20 06:40:04;;;;;;;5;3.1;;;;;;;27.24;53.19727;942.8042;;;;
2023/08/20 06:42:57;;;;;;;5.2;3.2;;;;;;;28.71;48.41211;942.7601;;;;
2023/08/20 06:45:22;;;;;;;6.2;3.2;;;;;;;28.65;49.18945;942.7815;;;;
2023/08/20 06:47:47;;;;;;;6.1;3.9;;;;;;;29.3;47.4375;942.7841;;;;
2023/08/20 06:50:12;;;;;;;4.1;3.3;;;;;;;30.04;44.90234;942.8231;;;;
2023/08/20 06:52:39;;;;;;;22.8;14.3;;;;;;;29.48;47.05078;942.7408;;;;
2023/08/20 06:55:04;;;;;;;7.7;4.7;;;;;;;30.7;44.82422;942.7379;;;;
2023/08/20 06:57:29;;;;;;;4.2;3.2;;;;;;;30.91;46.98535;942.7436;;;;
2023/08/20 06:59:54;;;;;;;5.3;3.4;;;;;;;31.66;43.19531;942.7338;;;;
2023/08/20 07:02:19;;;;;;;5.9;3.7;;;;;;;31.95;43.6543;942.7925;;;;
2023/08/20 07:04:46;;;;;;;6.8;3;;;;;;;31.06;44.46484;942.7678;;;;
2023/08/20 07:07:11;;;;;;;5.7;3.1;;;;;;;31.77;43.02637;942.7659;;;;
2023/08/20 07:09:39;;;;;;;6.4;3.1;;;;;;;31.41;42.5127;942.7761;;;;
2023/08/20 07:12:04;;;;;;;3.4;3.1;;;;;;;32.49;41.91895;942.7861;;;;
2023/08/20 07:14:32;;;;;;;4.5;3.3;;;;;;;32.95;41.0957;942.8148;;;;
2023/08/20 07:16:59;;;;;;;5.9;3.4;;;;;;;33.08;39.07715;942.7681;;;;
2023/08/20 07:19:24;;;;;;;4.8;3.1;;;;;;;33.09;39.79883;942.7483;;;;
2023/08/20 07:21:50;;;;;;;4.4;3;;;;;;;33.9;39.09961;942.7949;;;;
2023/08/20 07:24:17;;;;;;;4.3;2.7;;;;;;;34.55;38.57715;942.7779;;;;
2023/08/20 07:26:42;;;;;;;4.9;3.3;;;;;;;34.63;36.87305;942.7908;;;;
2023/08/20 07:29:08;;;;;;;4.5;3;;;;;;;33.84;38.03613;942.8047;;;;
2023/08/20 07:31:33;;;;;;;5.1;3;;;;;;;33.23;38.53809;942.7717;;;;
2023/08/20 07:33:59;;;;;;;4.6;3.2;;;;;;;33.24;37.80469;942.8096;;;;
2023/08/20 07:36:24;;;;;;;3.2;2.9;;;;;;;34.49;37.72852;942.8141;;;;
2023/08/20 07:38:50;;;;;;;6.3;3.2;;;;;;;35.59;36.63574;942.8106;;;;
2023/08/20 07:41:15;;;;;;;3.8;3.1;;;;;;;34.77;37.125;942.8342;;;;
2023/08/20 07:43:44;;;;;;;5.3;3.1;;;;;;;34.08;36.18945;942.8198;;;;
2023/08/20 07:46:09;;;;;;;4.8;3.1;;;;;;;35.91;34.4375;942.884;;;;
2023/08/20 07:48:34;;;;;;;5.4;3.3;;;;;;;35.67;34.20215;942.8533;;;;
2023/08/20 07:50:59;;;;;;;4.6;3.1;;;;;;;34.88;35.7832;942.8667;;;;
2023/08/20 07:53:26;;;;;;;4.2;3.1;;;;;;;35.64;34.66992;942.8064;;;;
2023/08/20 07:55:51;;;;;;;4.6;3;;;;;;;37.25;32.61035;942.8445;;;;
2023/08/20 07:58:17;;;;;;;4.3;3.1;;;;;;;37.09;31.96875;942.8476;;;;
2023/08/20 08:00:43;;;;;;;4.1;3.4;;;;;;;37.7;31.51367;942.8703;;;;
2023/08/20 08:03:09;;;;;;;6;3.3;;;;;;;37.32;32.53027;942.8257;;;;
2023/08/20 08:05:34;;;;;;;6.3;3;;;;;;;35.79;33.18457;942.8627;;;;
2023/08/20 08:07:59;;;;;;;5.2;3;;;;;;;34.55;34.62402;942.8304;;;;
2023/08/20 08:10:24;;;;;;;5.4;3.5;;;;;;;34.6;35.67676;942.7784;;;;
2023/08/20 08:12:53;;;;;;;6;3.3;;;;;;;34.4;35.9502;942.834;;;;
2023/08/20 08:15:18;;;;;;;4.5;3.2;;;;;;;35.06;36.15918;942.8033;;;;
2023/08/20 08:17:44;;;;;;;4.6;3.2;;;;;;;35.36;34.86621;942.7752;;;;
2023/08/20 08:20:10;;;;;;;5.4;3.1;;;;;;;35.35;34.11816;942.7946;;;;
2023/08/20 08:22:35;;;;;;;6.4;3.2;;;;;;;37.15;31.07617;942.783;;;;
2023/08/20 08:25:00;;;;;;;5.7;3.2;;;;;;;37.18;31.4541;942.7958;;;;
2023/08/20 08:27:29;;;;;;;3.6;3.1;;;;;;;35.43;32.97656;942.8403;;;;
2023/08/20 08:29:54;;;;;;;6;3.6;;;;;;;36.01;34.56543;942.8585;;;;
2023/08/20 08:32:21;;;;;;;3.2;2.7;;;;;;;37.23;31.28711;942.8533;;;;
2023/08/20 08:34:46;;;;;;;5.1;3.3;;;;;;;35.87;34.04785;942.8597;;;;
2023/08/20 08:37:11;;;;;;;5.2;2.9;;;;;;;34.73;35.6377;942.8819;;;;
2023/08/20 08:39:37;;;;;;;4.4;3.4;;;;;;;35.97;33.77734;942.8563;;;;
2023/08/20 08:42:02;;;;;;;4.3;3;;;;;;;33.28;37.59277;942.8413;;;;
2023/08/20 08:44:27;;;;;;;4.5;3;;;;;;;32.84;38.64941;942.8219;;;;
2023/08/20 08:46:54;;;;;;;6.3;3.3;;;;;;;32.9;37.8252;942.8136;;;;
2023/08/20 08:49:20;;;;;;;5.4;2.8;;;;;;;33.97;36.03711;942.842;;;;
2023/08/20 08:51:46;;;;;;;4.2;2.9;;;;;;;34.81;36.50098;942.8042;;;;
2023/08/20 08:54:11;;;;;;;4.1;3.4;;;;;;;34.48;35.08887;942.8078;;;;
2023/08/20 08:56:37;;;;;;;4.3;2.8;;;;;;;33.39;37.33789;942.7978;;;;
2023/08/20 08:59:03;;;;;;;3.9;3;;;;;;;33.12;36.83398;942.7676;;;;
2023/08/20 09:01:30;;;;;;;4.3;2.8;;;;;;;33.95;37.29883;942.8083;;;;
2023/08/20 09:03:55;;;;;;;6.1;3.5;;;;;;;33.22;38.87305;942.7595;;;;
2023/08/20 09:06:20;;;;;;;4.2;2.9;;;;;;;33.16;39.8291;942.7372;;;;
2023/08/20 09:12:30;;;;;;;4.6;3.2;;;;;;;33.24;40.62891;942.7601;;;;
2023/08/20 09:15:00;;;;;;;5.4;3.6;;;;;;;33.02;39.86621;942.7296;;;;
2023/08/20 09:17:22;;;;;;;5.5;3.3;;;;;;;33.07;40.96289;942.7564;;;;
2023/08/20 09:20:14;;;;;;;8.4;3.5;;;;;;;32.96;43.06641;942.7528;;;;
2023/08/20 09:22:43;;;;;;;5.5;3.4;;;;;;;32.87;40.06836;942.7191;;;;
2023/08/20 09:25:09;;;;;;;7.5;3.4;;;;;;;32.78;39.93945;942.6895;;;;
2023/08/20 09:27:34;;;;;;;6.1;3.3;;;;;;;33.04;38.6543;942.7169;;;;
2023/08/20 09:30:23;;;;;;;5.1;3.4;;;;;;;33.16;39.81641;942.7518;;;;
2023/08/20 09:32:48;;;;;;;5.7;3.3;;;;;;;32.97;40.42578;942.7025;;;;
2023/08/20 09:35:18;;;;;;;5.3;3.3;;;;;;;33.15;39.97266;942.7068;;;;
2023/08/20 09:37:43;;;;;;;4;3;;;;;;;32.87;41.07715;942.68;;;;
2023/08/20 09:40:31;;;;;;;6.2;3.2;;;;;;;32.68;44.76758;942.6453;;;;
2023/08/20 09:43:00;;;;;;;5.7;3.1;;;;;;;32.66;44.61133;942.71;;;;
2023/08/20 09:45:25;;;;;;;6.5;3.3;;;;;;;32.68;37.80762;942.7009;;;;
2023/08/20 09:47:50;;;;;;;4.6;3.1;;;;;;;32.86;38.72168;942.6746;;;;
2023/08/20 09:50:15;;;;;;;5.5;3.4;;;;;;;32.82;41.63672;942.7019;;;;
2023/08/20 09:52:40;;;;;;;4.3;3.5;;;;;;;33.27;43.62598;942.6782;;;;
2023/08/20 09:55:09;;;;;;;5.6;3.1;;;;;;;33.31;37.93164;942.6628;;;;
2023/08/20 09:57:34;;;;;;;7.7;3.7;;;;;;;33.1;42.2627;942.7026;;;;
2023/08/20 09:59:59;;;;;;;4.2;3.8;;;;;;;32.76;42.06348;942.6797;;;;
2023/08/20 10:02:24;;;;;;;5.6;3.6;;;;;;;32.89;43.39648;942.6235;;;;
2023/08/20 10:04:50;;;;;;;8.6;3.6;;;;;;;32.99;41.98828;942.6183;;;;
2023/08/20 10:07:15;;;;;;;5;3.3;;;;;;;33.08;40.72266;942.5619;;;;
2023/08/20 10:09:45;;;;;;;4.1;3.2;;;;;;;32.63;41.10254;942.5786;;;;
2023/08/20 10:12:09;;;;;;;6.6;3;;;;;;;32.94;39.90625;942.5928;;;;
2023/08/20 10:14:37;;;;;;;4.2;2.2;;;;;;;33.85;35.0166;942.6384;;;;
2023/08/20 10:17:02;;;;;;;4.3;2.6;;;;;;;33.8;37.09375;942.6588;;;;
2023/08/20 10:19:27;;;;;;;5;3.5;;;;;;;33.65;40.20996;942.606;;;;
2023/08/20 10:21:55;;;;;;;6.5;3;;;;;;;34;36.61719;942.687;;;;
2023/08/20 10:24:21;;;;;;;3.5;2.5;;;;;;;34.46;35.93066;942.6219;;;;
2023/08/20 10:26:45;;;;;;;9;2.9;;;;;;;34.66;37.53809;942.642;;;;
2023/08/20 10:29:12;;;;;;;4.2;2.6;;;;;;;34.79;35.24512;942.6078;;;;
2023/08/20 10:31:37;;;;;;;6.1;3.1;;;;;;;34.28;37.92773;942.6584;;;;
2023/08/20 10:34:03;;;;;;;3.5;2.6;;;;;;;34.43;41.03711;942.6007;;;;
2023/08/20 10:36:29;;;;;;;4;2.6;;;;;;;34.8;37.69434;942.5878;;;;
2023/08/20 10:38:55;;;;;;;3.8;2.6;;;;;;;34.98;38.36035;942.6445;;;;
2023/08/20 10:41:21;;;;;;;5.3;3;;;;;;;35.24;35.72656;942.636;;;;
2023/08/20 10:43:46;;;;;;;5.1;3;;;;;;;34.8;37.82715;942.6474;;;;
2023/08/20 10:46:11;;;;;;;5.1;3;;;;;;;35.63;36.54297;942.6533;;;;
2023/08/20 10:48:36;;;;;;;6.1;2.9;;;;;;;36.6;34.75586;942.6437;;;;
2023/08/20 10:51:09;;;;;;;5.1;2.8;;;;;;;36.51;37.0957;942.6836;;;;
2023/08/20 10:53:34;;;;;;;5.7;3.3;;;;;;;36.58;35.7832;942.6498;;;;
2023/08/20 10:56:02;;;;;;;4.5;3;;;;;;;36.98;35.5957;942.6163;;;;
2023/08/20 10:58:29;;;;;;;3.9;2.7;;;;;;;38.1;32.75488;942.6749;;;;
2023/08/20 11:00:54;;;;;;;5.6;3.1;;;;;;;37.56;33.74902;942.6575;;;;
2023/08/20 11:03:19;;;;;;;3.8;2.8;;;;;;;38.33;32.77246;942.6842;;;;
2023/08/20 11:05:50;;;;;;;5.5;2.9;;;;;;;37.59;33.54395;942.6401;;;;
2023/08/20 11:08:15;;;;;;;8.3;3.2;;;;;;;37.36;34.35156;942.666;;;;
2023/08/20 11:10:40;;;;;;;4.5;2.8;;;;;;;37.58;34.0293;942.6617;;;;
2023/08/20 11:13:08;;;;;;;5;3;;;;;;;38.05;34.14941;942.6747;;;;
2023/08/20 11:15:34;;;;;;;4.3;3.2;;;;;;;38.36;33.56348;942.6031;;;;
2023/08/20 11:17:59;;;;;;;7.4;3.2;;;;;;;37.7;35.25195;942.6415;;;;
2023/08/20 11:20:27;;;;;;;4.8;3.1;;;;;;;37.6;35.88672;942.6277;;;;
2023/08/20 11:22:55;;;;;;;3.9;2.8;;;;;;;38.75;32.62012;942.6199;;;;
2023/08/20 11:25:20;;;;;;;4.8;2.8;;;;;;;37.71;35.07031;942.5895;;;;
2023/08/20 11:27:49;;;;;;;4.6;2.8;;;;;;;38.8;31.84473;942.5651;;;;
2023/08/20 11:30:14;;;;;;;7.3;3;;;;;;;38.61;33.04688;942.575;;;;
2023/08/20 11:32:42;;;;;;;6.6;2.7;;;;;;;38.79;32.31934;942.5311;;;;
2023/08/20 11:35:29;;;;;;;4.3;2.8;;;;;;;39.1;32.09668;942.5438;;;;
2023/08/20 11:38:22;;;;;;;6.2;2.9;;;;;;;39.36;31.74902;942.5095;;;;
2023/08/20 11:40:48;;;;;;;5.7;3.4;;;;;;;39.63;31.12207;942.5319;;;;
2023/08/20 11:43:13;;;;;;;6;3.4;;;;;;;40.46;29.98145;942.4869;;;;
2023/08/20 11:45:38;;;;;;;4.5;3.4;;;;;;;40.02;32.86816;942.491;;;;
2023/08/20 11:48:04;;;;;;;4.6;3.3;;;;;;;40.05;31.69922;942.4493;;;;
2023/08/20 11:50:29;;;;;;;6.9;3.2;;;;;;;40.83;29.50391;942.4141;;;;
2023/08/20 11:53:01;;;;;;;6;2.9;;;;;;;41.43;29.0293;942.4424;;;;
2023/08/20 11:55:22;;;;;;;6.9;3.1;;;;;;;41.8;28.47656;942.4682;;;;
2023/08/20 11:57:50;;;;;;;4.5;2.8;;;;;;;42.19;27.48438;942.4461;;;;
2023/08/20 12:00:17;;;;;;;3.9;2.8;;;;;;;42.89;26.1748;942.3766;;;;
2023/08/20 12:02:44;;;;;;;4.4;2.7;;;;;;;42.91;27.1582;942.4241;;;;
2023/08/20 12:05:12;;;;;;;5.6;3.1;;;;;;;43.37;26.70703;942.3708;;;;
2023/08/20 12:07:43;;;;;;;7.7;3.1;;;;;;;42.98;26.33984;942.363;;;;
2023/08/20 12:10:08;;;;;;;4.7;3;;;;;;;43.76;26.02734;942.4138;;;;
2023/08/20 12:12:33;;;;;;;3.8;3.1;;;;;;;43;26.37891;942.449;;;;
2023/08/20 12:15:00;;;;;;;6.4;3.3;;;;;;;43.46;26.69922;942.337;;;;
2023/08/20 12:17:25;;;;;;;9.1;3;;;;;;;42.88;27.85645;942.3741;;;;
2023/08/20 12:19:55;;;;;;;6;3.5;;;;;;;41.77;30.93652;942.3516;;;;
2023/08/20 12:22:27;;;;;;;4.1;3;;;;;;;41.78;28.62305;942.2997;;;;
2023/08/20 12:24:55;;;;;;;4.2;3.1;;;;;;;42;27.30078;942.317;;;;
2023/08/20 12:27:21;;;;;;;6.6;3.2;;;;;;;42.79;27.39648;942.3354;;;;
2023/08/20 12:29:49;;;;;;;6.6;2.9;;;;;;;41.42;28.82031;942.2952;;;;
2023/08/20 12:32:14;;;;;;;5.4;3.3;;;;;;;40.05;32.67578;942.2719;;;;
2023/08/20 12:34:39;;;;;;;4.4;2.8;;;;;;;40.5;30.31445;942.2656;;;;
2023/08/20 12:37:09;;;;;;;4.4;3.2;;;;;;;39.01;31.21484;942.2372;;;;
2023/08/20 12:39:34;;;;;;;4.7;2.9;;;;;;;38.55;32.30176;942.1923;;;;
2023/08/20 12:42:02;;;;;;;4.4;2.8;;;;;;;39.19;29.79004;942.1326;;;;
2023/08/20 12:44:27;;;;;;;5.8;3.2;;;;;;;38.77;30.39551;942.1815;;;;
2023/08/20 12:46:56;;;;;;;4.7;2.8;;;;;;;37.46;34.10547;942.1635;;;;
2023/08/20 12:49:51;;;;;;;6.5;3.2;;;;;;;37.23;33.40918;942.1609;;;;
2023/08/20 12:52:21;;;;;;;6;2.9;;;;;;;36.67;34.54297;942.1303;;;;
2023/08/20 12:54:46;;;;;;;7.7;3.2;;;;;;;36.35;35.5957;942.0745;;;;
2023/08/20 12:57:13;;;;;;;6.9;3.3;;;;;;;36;35.94336;942.0676;;;;
2023/08/20 12:59:39;;;;;;;3.8;2.9;;;;;;;35.93;36.14355;942.0101;;;;
2023/08/20 13:02:04;;;;;;;6.5;3.1;;;;;;;35.81;34.9248;942.0055;;;;
2023/08/20 13:04:29;;;;;;;5.1;2.9;;;;;;;35.42;35.60742;942.0424;;;;
2023/08/20 13:06:55;;;;;;;4.6;2.9;;;;;;;35.53;36.09961;941.9141;;;;
2023/08/20 13:09:20;;;;;;;3.8;2.7;;;;;;;35.31;38.14551;942.0087;;;;
2023/08/20 13:11:46;;;;;;;6.1;2.9;;;;;;;35.11;37.51367;941.976;;;;
2023/08/20 13:16:36;;;;;;;4;3;;;;;;;34.69;37.60059;941.9336;;;;
2023/08/20 13:19:02;;;;;;;5;2.9;;;;;;;35.01;36.8916;941.94;;;;
2023/08/20 13:21:48;;;;;;;3.9;2.6;;;;;;;34.9;37.99219;941.9738;;;;
2023/08/20 13:24:16;;;;;;;4.2;2.5;;;;;;;34.87;36.98828;941.8466;;;;
2023/08/20 13:26:41;;;;;;;4;2.8;;;;;;;34.59;39.29199;941.8597;;;;
2023/08/20 13:29:10;;;;;;;4.8;2.7;;;;;;;35.1;37.45313;941.8445;;;;
2023/08/20 13:31:35;;;;;;;6.8;3.1;;;;;;;35.29;36.08105;941.8293;;;;
2023/08/20 13:34:00;;;;;;;3.6;2.5;;;;;;;35.2;36.06152;941.8362;;;;
2023/08/20 13:36:25;;;;;;;4.4;2.8;;;;;;;35.24;36.40234;941.8094;;;;
2023/08/20 13:38:50;;;;;;;6.1;3.3;;;;;;;35.22;37.08789;941.7803;;;;
2023/08/20 13:41:16;;;;;;;4.9;2.8;;;;;;;35.08;37.58496;941.7413;;;;
2023/08/20 13:43:42;;;;;;;7;2.9;;;;;;;34.76;38.59473;941.7452;;;;
2023/08/20 13:46:08;;;;;;;4;2.7;;;;;;;34.93;37.5957;941.7079;;;;
2023/08/20 13:48:33;;;;;;;4.3;2.8;;;;;;;34.92;35.09766;941.6802;;;;
2023/08/20 13:50:58;;;;;;;6.2;2.8;;;;;;;34.52;37.44238;941.6763;;;;
2023/08/20 13:53:24;;;;;;;3.8;2.4;;;;;;;34.7;35.97461;941.6823;;;;
2023/08/20 13:55:52;;;;;;;4;2.7;;;;;;;34.69;36.12891;941.5941;;;;
2023/08/20 13:58:17;;;;;;;4.1;3;;;;;;;34.76;36.61719;941.6149;;;;
2023/08/20 14:00:45;;;;;;;3.3;2.6;;;;;;;34.87;37.25293;941.6188;;;;
2023/08/20 14:03:28;;;;;;;4.7;2.6;;;;;;;34.15;38.03711;941.6228;;;;
2023/08/20 14:05:56;;;;;;;4.2;2.6;;;;;;;34.28;38.08496;941.6449;;;;
2023/08/20 14:08:22;;;;;;;3.9;2.8;;;;;;;34.42;36.86719;941.6646;;;;
2023/08/20 14:10:48;;;;;;;3.9;2.9;;;;;;;34.37;38.89941;941.6146;;;;
2023/08/20 14:13:13;;;;;;;4.2;2.5;;;;;;;34.33;39.41309;941.5867;;;;
2023/08/20 14:15:49;;;;;;;5.2;3.1;;;;;;;34.23;37.30859;941.6252;;;;
2023/08/20 14:18:17;;;;;;;5.4;2.6;;;;;;;34;38.6875;941.5793;;;;
2023/08/20 14:20:42;;;;;;;6.8;2.8;;;;;;;34.21;38.31934;941.6042;;;;
2023/08/20 14:23:08;;;;;;;4.7;2.7;;;;;;;34.07;37.82617;941.5637;;;;
2023/08/20 14:25:34;;;;;;;6.8;2.5;;;;;;;34.03;36.53516;941.5474;;;;
2023/08/20 14:28:01;;;;;;;4.5;2.5;;;;;;;33.97;36.99902;941.5454;;;;
2023/08/20 14:30:26;;;;;;;3.6;2.4;;;;;;;33.9;36.84863;941.5497;;;;
2023/08/20 14:32:52;;;;;;;4.7;2.6;;;;;;;33.8;38.80176;941.5449;;;;
2023/08/20 14:35:16;;;;;;;3.8;2.5;;;;;;;33.59;39.14551;941.5878;;;;
2023/08/20 14:37:44;;;;;;;4.1;3.2;;;;;;;33.51;39.21094;941.6075;;;;
2023/08/20 14:40:09;;;;;;;4.9;2.7;;;;;;;33.52;39.99316;941.5274;;;;